Time,TemperatureF,DewpointF,PressureIn,WindDirection,WindDirectionDegrees,WindSpeedMPH,WindSpeedGustMPH,Humidity,HourlyPrecipIn,Conditions,Clouds,dailyrainin,SoftwareType,DateUTC
2013-04-24 00:03:00,25.7,11.0,28.97,WSW,248,3.6,4.3,49,0.00,,,0.00,WSDL version 420,2013-04-24 06:03:00,
2013-04-24 00:08:00,25.4,10.7,28.97,WSW,248,3.6,4.3,49,0.00,,,0.00,WSDL version 420,2013-04-24 06:08:00,
2013-04-24 00:13:00,25.1,10.3,28.97,WSW,248,4.0,4.3,49,-99.99,,,-99.99,WSDL version 420,2013-04-24 06:13:00,
2013-04-24 00:18:00,24.8,10.9,28.97,WSW,257,3.1,4.3,52,0.00,,,0.00,WSDL version 420,2013-04-24 06:18:00,
2013-04-24 00:23:00,24.6,10.8,28.97,WNW,293,3.7,4.3,51,0.00,,,0.00,WSDL version 420,2013-04-24 06:23:00,
2013-04-24 00:28:00,24.2,10.0,28.97,WNW,285,4.4,5.6,50,-99.99,,,-99.99,WSDL version 420,2013-04-24 06:28:00,
2013-04-24 00:33:00,24.2,10.8,29.00,SW,233,4.5,6.0,53,-99.99,,,-99.99,WSDL version 420,2013-04-24 06:33:00,
2013-04-24 00:38:00,24.5,11.9,29.00,WSW,240,6.0,7.6,55,-99.99,,,-99.99,WSDL version 420,2013-04-24 06:38:00,
2013-04-24 00:43:00,24.7,12.3,29.00,SSW,203,6.0,7.6,55,-99.99,,,-99.99,WSDL version 420,2013-04-24 06:43:00,
2013-04-24 00:48:00,24.9,12.2,29.00,WSW,248,5.5,6.5,54,0.00,,,0.00,WSDL version 420,2013-04-24 06:48:00,
2013-04-24 00:53:00,25.0,12.3,29.00,WSW,248,4.9,6.5,54,-99.99,,,-99.99,WSDL version 420,2013-04-24 06:53:00,
2013-04-24 00:58:00,25.3,12.8,29.00,West,263,5.1,6.5,55,-99.99,,,-99.99,WSDL version 420,2013-04-24 06:58:00,
2013-04-24 01:03:00,25.3,13.0,29.00,WNW,293,8.1,8.1,55,-99.99,,,-99.99,WSDL version 420,2013-04-24 07:03:00,
2013-04-24 01:08:00,25.3,13.0,29.00,SW,225,4.5,7.4,55,0.00,,,0.00,WSDL version 420,2013-04-24 07:08:00,
2013-04-24 01:13:00,25.5,13.1,29.00,West,264,4.2,6.5,55,0.00,,,0.00,WSDL version 420,2013-04-24 07:13:00,
2013-04-24 01:18:00,25.5,13.1,29.00,WSW,248,5.7,6.5,55,-99.99,,,-99.99,WSDL version 420,2013-04-24 07:18:00,
2013-04-24 01:23:00,25.5,12.9,29.00,West,261,4.5,6.5,54,0.00,,,0.00,WSDL version 420,2013-04-24 07:23:00,
2013-04-24 01:28:00,25.3,12.6,29.00,WNW,293,4.5,6.5,54,0.00,,,0.00,WSDL version 420,2013-04-24 07:28:00,
2013-04-24 01:33:00,25.2,12.4,29.00,West,261,3.6,6.3,54,0.00,,,0.00,WSDL version 420,2013-04-24 07:33:00,
2013-04-24 01:38:00,25.2,12.6,29.00,West,270,4.0,6.3,54,0.00,,,0.00,WSDL version 420,2013-04-24 07:38:00,
2013-04-24 01:43:00,-999.0,-99.9,29.00,North,-999,-999.0,-999.0,-999,-99.99,,,-99.99,WSDL version 420,2013-04-24 07:43:00,
2013-04-24 01:48:00,25.3,12.9,29.00,WSW,248,2.9,4.0,55,-99.99,,,-99.99,WSDL version 420,2013-04-24 07:48:00,
2013-04-24 01:53:00,25.5,13.1,29.00,WSW,248,2.9,4.0,55,0.00,,,0.00,WSDL version 420,2013-04-24 07:53:00,
2013-04-24 01:58:00,25.7,13.3,29.00,West,281,5.9,8.5,55,-99.99,,,-99.99,WSDL version 420,2013-04-24 07:58:00,
2013-04-24 02:03:00,25.7,13.4,28.97,West,281,5.3,8.5,55,0.00,,,0.00,WSDL version 420,2013-04-24 08:03:00,
2013-04-24 02:08:00,25.6,13.2,28.97,West,270,3.3,6.5,55,0.00,,,0.00,WSDL version 420,2013-04-24 08:08:00,
2013-04-24 02:13:00,25.3,12.9,28.97,WNW,293,4.7,4.9,55,-99.99,,,-99.99,WSDL version 420,2013-04-24 08:13:00,
2013-04-24 02:18:00,24.8,12.1,28.97,WNW,293,4.0,4.3,54,0.00,,,0.00,WSDL version 420,2013-04-24 08:18:00,
2013-04-24 02:23:00,24.6,12.3,28.97,WNW,293,2.7,4.3,55,0.00,,,0.00,WSDL version 420,2013-04-24 08:23:00,
2013-04-24 02:28:00,24.4,11.6,28.97,West,278,3.2,3.8,54,-99.99,,,-99.99,WSDL version 420,2013-04-24 08:28:00,
2013-04-24 02:33:00,24.1,11.8,28.97,West,281,3.0,4.9,58,-99.99,,,-99.99,WSDL version 420,2013-04-24 08:33:00,
2013-04-24 02:38:00,24.3,13.4,28.97,SW,225,4.9,4.9,60,-99.99,,,-99.99,WSDL version 420,2013-04-24 08:38:00,
2013-04-24 02:43:00,24.7,14.6,28.97,WSW,248,5.4,5.4,62,-99.99,,,-99.99,WSDL version 420,2013-04-24 08:43:00,
2013-04-24 02:48:00,25.3,15.4,28.97,SW,225,7.2,8.7,62,0.00,,,0.00,WSDL version 420,2013-04-24 08:48:00,
2013-04-24 02:53:00,25.8,15.8,28.97,WSW,248,6.9,8.7,61,0.00,,,0.00,WSDL version 420,2013-04-24 08:53:00,
2013-04-24 02:58:00,26.3,15.9,28.97,WSW,248,7.8,8.5,60,-99.99,,,-99.99,WSDL version 420,2013-04-24 08:58:00,
2013-04-24 03:03:00,26.6,15.9,28.97,NW,315,6.4,9.8,60,-99.99,,,-99.99,WSDL version 420,2013-04-24 09:03:00,
2013-04-24 03:08:00,26.6,15.9,28.97,WSW,248,7.1,9.8,60,-99.99,,,-99.99,WSDL version 420,2013-04-24 09:08:00,
2013-04-24 03:13:00,26.6,15.9,28.97,NW,315,4.7,10.1,60,-99.99,,,-99.99,WSDL version 420,2013-04-24 09:13:00,